Estación Meteorológica Peña el Pijo (Robertgarden) [ 02/03/23 04:12:22 CET ]

Fecha Hora Presion(HPa) Temp (°C) Humedad % Rocio (°C) Viento ( m/s) Direccion Lluvia 1Hora(mm) Lluvia 24H(mm) LLuvia Total(mm)
2010-Mar-12 01:01:10 1003.900 -0.1 83 -2.6         100.49
2010-Mar-12 02:03:12 1003.600 0.4 83 -2.2         100.49
2010-Mar-12 03:01:16 1003.600 0.3 86 -1.8         100.49
2010-Mar-12 04:01:12 1003.000 0.2 88 -1.5         100.49
2010-Mar-12 05:01:13 1003.000 0.1 89 -1.5         100.49
2010-Mar-12 06:01:13 1003.900 -0.2 89 -1.8         100.49
2010-Mar-12 07:01:18 1004.400 -0.4 89 -2.0         100.49
2010-Mar-12 08:01:13 1004.700 -0.4 90 -1.8         100.49
2010-Mar-12 09:01:16 1005.600 0.2 90 -1.2         100.49
2010-Mar-12 10:01:11 1005.900 1.5 88 -0.3         100.49
2010-Mar-12 11:01:13 1006.300 3.1 83 0.5         100.49
2010-Mar-12 12:01:14 1006.300 5.9 74 1.6         100.49
2010-Mar-12 13:01:18 1005.900 8.1 66 2.1         100.49
2010-Mar-12 14:01:14 1005.900 4.9 76 1.0 1.6 N     100.49
2010-Mar-12 15:01:13 1006.000 5.8 72 1.2         100.49
2010-Mar-12 16:01:12 1006.100 5.4 67 -0.2         100.49
2010-Mar-12 17:01:12 1006.400 5.3 66 -0.6         100.49
2010-Mar-12 18:01:13 1007.000 4.8 69 -0.4         100.49
2010-Mar-12 19:01:11 1007.900 3.8 76 -0.1         100.49
2010-Mar-12 20:01:17 1008.700 3.3 76 -0.5         100.49
2010-Mar-12 21:01:16 1009.200 2.9 75 -1.1         100.49
2010-Mar-12 22:01:14 1009.600 2.8 75 -1.2         100.49
2010-Mar-12 23:01:14 1009.800 2.5 79 -0.8         100.49

Temperatura Máxima:    Temperatura Mínima:
Presión Máxima:1009.800 Hpa    Presión Mínima:1003.000 Hpa


Volver